createdAt,value
2018-07-10T00:02:27.177Z,1.87
2018-07-10T00:05:35.206Z,1.73
2018-07-10T00:10:16.426Z,1.40
2018-07-10T00:12:43.716Z,1.53
2018-07-10T00:15:11.055Z,1.83
2018-07-10T00:17:38.370Z,2.80
2018-07-10T00:20:05.757Z,2.50
2018-07-10T00:22:33.143Z,1.93
2018-07-10T00:25:00.490Z,1.60
2018-07-10T00:27:27.832Z,2.00
2018-07-10T00:29:55.134Z,3.10
2018-07-10T00:32:22.497Z,1.90
2018-07-10T00:34:49.842Z,1.70
2018-07-10T00:37:17.281Z,1.80
2018-07-10T00:39:44.690Z,2.00
2018-07-10T00:42:13.348Z,2.20
2018-07-10T00:44:40.678Z,1.70
2018-07-10T00:47:07.989Z,1.87
2018-07-10T00:49:35.306Z,1.67
2018-07-10T00:52:02.619Z,5.77
2018-07-10T00:54:29.849Z,9.00
2018-07-10T00:56:57.154Z,6.50
2018-07-10T00:59:24.493Z,3.53
2018-07-10T01:01:52.937Z,2.17
2018-07-10T01:04:20.198Z,2.17
2018-07-10T01:06:47.477Z,2.40
2018-07-10T01:09:15.234Z,2.40
2018-07-10T01:11:42.644Z,2.00
2018-07-10T01:14:09.976Z,2.13
2018-07-10T01:16:38.538Z,2.50
2018-07-10T01:19:12.785Z,2.80
2018-07-10T01:21:41.176Z,2.53
2018-07-10T01:24:08.535Z,3.00
2018-07-10T01:26:38.143Z,3.23
2018-07-10T01:29:12.068Z,2.80
2018-07-10T01:31:42.133Z,2.80
2018-07-10T01:34:09.509Z,3.03
2018-07-10T01:36:36.945Z,3.30
2018-07-10T01:39:04.818Z,3.40
2018-07-10T01:41:32.117Z,2.63
2018-07-10T01:43:59.525Z,3.17
2018-07-10T01:46:26.833Z,3.17
2018-07-10T01:48:54.233Z,3.03
2018-07-10T01:51:21.633Z,2.73
2018-07-10T01:53:49.906Z,2.93
2018-07-10T01:56:17.390Z,2.80
2018-07-10T01:58:44.731Z,3.20
2018-07-10T02:01:12.080Z,2.63
2018-07-10T02:03:39.410Z,3.37
2018-07-10T02:06:08.318Z,3.03
2018-07-10T02:08:35.684Z,2.70
2018-07-10T02:11:03.071Z,2.80
2018-07-10T02:13:30.485Z,3.33
2018-07-10T02:15:57.806Z,2.83
2018-07-10T02:18:25.214Z,2.70
2018-07-10T02:20:58.573Z,3.10
2018-07-10T02:23:30.576Z,3.20
2018-07-10T02:25:57.958Z,2.80
2018-07-10T02:28:25.314Z,4.20
2018-07-10T02:30:52.617Z,4.50
2018-07-10T02:33:19.959Z,4.57
2018-07-10T02:35:47.291Z,3.70
2018-07-10T02:38:14.894Z,3.60
2018-07-10T02:40:43.383Z,3.77
2018-07-10T02:43:10.738Z,3.90
2018-07-10T02:45:38.119Z,3.67
2018-07-10T02:48:05.462Z,3.73
2018-07-10T02:50:33.138Z,4.03
2018-07-10T02:53:00.642Z,5.03
2018-07-10T02:55:28.826Z,4.50
2018-07-10T02:57:56.258Z,5.60
2018-07-10T03:00:23.634Z,4.40
2018-07-10T03:02:51.032Z,5.50
2018-07-10T03:05:19.742Z,4.27
2018-07-10T03:07:47.109Z,5.10
2018-07-10T03:10:14.465Z,4.70
2018-07-10T03:12:42.169Z,5.13
2018-07-10T03:15:11.350Z,5.17
2018-07-10T03:17:38.821Z,4.63
2018-07-10T03:20:07.021Z,5.07
2018-07-10T03:22:34.578Z,5.10
2018-07-10T03:25:01.916Z,5.10
2018-07-10T03:27:29.578Z,4.37
2018-07-10T03:29:58.085Z,5.03
2018-07-10T03:32:25.509Z,4.50
2018-07-10T03:34:52.829Z,4.00
2018-07-10T03:37:20.134Z,4.17
2018-07-10T03:39:47.942Z,4.27
2018-07-10T03:42:16.490Z,4.00
2018-07-10T03:44:44.939Z,4.40
2018-07-10T03:47:13.418Z,5.60
2018-07-10T03:49:41.046Z,6.00
2018-07-10T03:52:08.370Z,5.57
2018-07-10T03:54:39.923Z,6.10
2018-07-10T03:57:07.305Z,6.57
2018-07-10T03:59:44.693Z,7.47
2018-07-10T04:02:12.017Z,6.87
2018-07-10T04:04:39.347Z,6.70
2018-07-10T04:07:06.710Z,4.17
2018-07-10T04:09:34.029Z,3.03
2018-07-10T04:12:01.397Z,1.77
2018-07-10T04:14:28.752Z,1.80
2018-07-10T04:16:56.050Z,1.57
2018-07-10T04:19:23.446Z,1.10
2018-07-10T04:21:52.778Z,1.70
2018-07-10T04:24:20.530Z,1.47
2018-07-10T04:26:57.850Z,1.63
2018-07-10T04:29:33.478Z,1.50
2018-07-10T04:32:01.024Z,1.60
2018-07-10T04:34:30.063Z,1.40
2018-07-10T04:37:03.227Z,1.90
2018-07-10T04:39:30.586Z,1.70
2018-07-10T04:42:05.492Z,1.47
2018-07-10T04:44:33.149Z,1.70
2018-07-10T04:47:07.414Z,1.30
2018-07-10T04:49:56.030Z,1.73
2018-07-10T04:52:25.432Z,1.70
2018-07-10T04:55:06.030Z,1.80
2018-07-10T04:57:36.082Z,1.67
2018-07-10T05:00:04.834Z,1.67
2018-07-10T05:02:33.182Z,1.70
2018-07-10T05:05:00.790Z,1.73
2018-07-10T05:07:28.551Z,1.70
2018-07-10T05:09:55.959Z,1.30
2018-07-10T05:12:23.261Z,2.07
2018-07-10T05:14:51.584Z,1.63
2018-07-10T05:17:19.726Z,1.80
2018-07-10T05:19:47.426Z,1.40
2018-07-10T05:22:15.398Z,1.70
2018-07-10T05:24:42.950Z,1.67
2018-07-10T05:27:10.353Z,1.73
2018-07-10T05:29:37.618Z,1.80
2018-07-10T05:32:05.007Z,1.77
2018-07-10T05:34:33.893Z,1.50
2018-07-10T05:37:01.226Z,1.43
2018-07-10T05:39:31.690Z,2.30
2018-07-10T05:41:59.102Z,1.47
2018-07-10T05:44:26.439Z,1.43
2018-07-10T05:47:00.260Z,1.40
2018-07-10T05:49:27.589Z,1.40
2018-07-10T05:51:55.028Z,1.27
2018-07-10T05:54:24.908Z,1.27
2018-07-10T05:56:52.306Z,2.20
2018-07-10T05:59:20.166Z,2.00
2018-07-10T06:01:47.551Z,1.37
2018-07-10T06:04:16.516Z,1.70
2018-07-10T06:06:44.554Z,1.30
2018-07-10T06:09:12.874Z,0.90
2018-07-10T06:11:40.221Z,1.33
2018-07-10T06:14:07.583Z,2.40
2018-07-10T06:16:37.711Z,1.10
2018-07-10T06:19:05.588Z,1.00
2018-07-10T06:21:39.113Z,0.90
2018-07-10T06:24:09.081Z,1.30
2018-07-10T06:26:39.138Z,1.13
2018-07-10T06:29:06.498Z,1.20
2018-07-10T06:31:40.027Z,1.13
2018-07-10T06:34:07.334Z,1.03
2018-07-10T06:36:40.049Z,1.10
2018-07-10T06:39:10.105Z,1.00
2018-07-10T06:42:09.786Z,1.87
2018-07-10T06:44:37.779Z,1.20
2018-07-10T06:47:40.363Z,1.10
2018-07-10T06:50:07.755Z,1.20
2018-07-10T06:52:35.307Z,1.30
2018-07-10T06:55:04.277Z,0.83
2018-07-10T06:57:32.818Z,1.23
2018-07-10T07:00:02.531Z,1.20
2018-07-10T07:02:30.393Z,1.00
2018-07-10T07:04:57.757Z,1.10
2018-07-10T07:07:25.102Z,0.90
2018-07-10T07:09:52.402Z,0.90
2018-07-10T07:12:19.720Z,0.90
2018-07-10T07:14:47.108Z,0.87
2018-07-10T07:17:14.426Z,0.80
2018-07-10T07:19:41.726Z,0.83
2018-07-10T07:22:09.250Z,0.70
2018-07-10T07:24:36.595Z,0.90
2018-07-10T07:27:03.923Z,0.80
2018-07-10T07:29:31.249Z,0.90
2018-07-10T07:31:58.643Z,0.70
2018-07-10T07:34:26.018Z,0.80
2018-07-10T07:36:53.630Z,0.90
2018-07-10T07:39:20.960Z,0.87
2018-07-10T07:41:48.526Z,0.90
2018-07-10T07:44:15.931Z,0.70
2018-07-10T07:46:44.237Z,0.73
2018-07-10T07:49:11.534Z,0.90
2018-07-10T07:51:38.828Z,0.70
2018-07-10T07:54:06.371Z,0.80
2018-07-10T07:56:33.742Z,0.70
2018-07-10T07:59:01.109Z,0.87
2018-07-10T08:01:28.501Z,0.73
2018-07-10T08:03:55.849Z,0.70
2018-07-10T08:06:23.261Z,0.80
2018-07-10T08:08:50.674Z,0.70
2018-07-10T08:11:17.993Z,0.70
2018-07-10T08:13:45.544Z,0.70
2018-07-10T08:16:13.602Z,0.60
2018-07-10T08:18:40.952Z,1.67
2018-07-10T08:21:08.310Z,0.80
2018-07-10T08:23:35.755Z,0.80
2018-07-10T08:26:03.169Z,0.70
2018-07-10T08:28:30.513Z,0.70
2018-07-10T08:30:57.818Z,0.63
2018-07-10T08:33:25.277Z,0.63
2018-07-10T08:35:52.579Z,0.77
2018-07-10T08:38:37.781Z,0.80
2018-07-10T08:41:05.715Z,0.70
2018-07-10T08:43:33.073Z,1.17
2018-07-10T08:46:00.621Z,0.73
2018-07-10T08:48:27.958Z,0.80
2018-07-10T08:50:55.540Z,0.83
2018-07-10T08:53:23.071Z,1.10
2018-07-10T08:55:50.470Z,0.90
2018-07-10T08:58:17.771Z,0.80
2018-07-10T09:00:45.090Z,0.90
2018-07-10T09:03:12.413Z,0.90
2018-07-10T09:05:39.782Z,1.00
2018-07-10T09:08:07.178Z,1.00
2018-07-10T09:10:34.487Z,1.10
2018-07-10T09:13:01.893Z,1.20
2018-07-10T09:15:31.294Z,1.03
2018-07-10T09:17:59.245Z,1.07
2018-07-10T09:20:29.166Z,0.90
2018-07-10T09:22:56.634Z,1.00
2018-07-10T09:25:24.028Z,1.30
2018-07-10T09:27:51.673Z,1.03
2018-07-10T09:30:18.981Z,1.20
2018-07-10T09:32:46.409Z,1.00
2018-07-10T09:35:13.741Z,1.23
2018-07-10T09:37:45.167Z,1.23
2018-07-10T09:40:14.148Z,1.53
2018-07-10T09:42:45.228Z,1.43
2018-07-10T09:45:12.835Z,1.40
2018-07-10T09:47:40.257Z,1.10
2018-07-10T09:50:07.919Z,1.43
2018-07-10T09:52:35.357Z,1.43
2018-07-10T09:55:02.924Z,1.40
2018-07-10T09:57:30.889Z,1.50
2018-07-10T09:59:58.203Z,1.50
2018-07-10T10:02:33.249Z,1.30
2018-07-10T10:05:02.543Z,1.80
2018-07-10T10:07:30.146Z,1.57
2018-07-10T10:09:57.610Z,1.50
2018-07-10T10:12:24.953Z,1.90
2018-07-10T10:14:52.343Z,1.50
2018-07-10T10:17:20.941Z,1.90
2018-07-10T10:19:48.300Z,1.50
2018-07-10T10:22:15.625Z,1.43
2018-07-10T10:24:42.973Z,1.90
2018-07-10T10:27:10.370Z,2.00
2018-07-10T10:29:37.705Z,1.67
2018-07-10T10:32:05.102Z,1.67
2018-07-10T10:34:32.437Z,1.37
2018-07-10T10:36:59.744Z,1.50
2018-07-10T10:39:27.150Z,2.00
2018-07-10T10:41:54.494Z,1.77
2018-07-10T10:44:22.759Z,1.87
2018-07-10T10:46:50.070Z,1.90
2018-07-10T10:49:17.412Z,2.03
2018-07-10T10:51:45.537Z,1.70
2018-07-10T10:54:12.946Z,1.93
2018-07-10T10:56:40.308Z,1.60
2018-07-10T10:59:07.698Z,2.00
2018-07-10T11:01:34.995Z,1.50
2018-07-10T11:04:02.351Z,1.20
2018-07-10T11:06:30.085Z,1.10
2018-07-10T11:08:58.230Z,1.43
2018-07-10T11:11:26.313Z,1.67
2018-07-10T11:13:53.630Z,1.60
2018-07-10T11:16:21.325Z,1.20
2018-07-10T11:18:55.607Z,1.33
2018-07-10T11:21:31.982Z,1.30
2018-07-10T11:23:59.354Z,1.20
2018-07-10T11:26:33.942Z,1.33
2018-07-10T11:29:01.601Z,2.10
2018-07-10T11:31:28.949Z,1.00
2018-07-10T11:33:56.230Z,1.10
2018-07-10T11:36:23.563Z,1.13
2018-07-10T11:38:50.916Z,1.27
2018-07-10T11:41:18.298Z,1.10
2018-07-10T11:43:45.593Z,1.20
2018-07-10T11:46:12.961Z,1.10
2018-07-10T11:48:40.466Z,0.90
2018-07-10T11:51:07.817Z,0.90
2018-07-10T11:53:35.621Z,1.00
2018-07-10T11:56:02.910Z,1.00
2018-07-10T11:58:30.293Z,1.10
2018-07-10T12:00:57.706Z,1.00
2018-07-10T12:03:25.894Z,1.10
2018-07-10T12:05:53.270Z,0.90
2018-07-10T12:08:20.705Z,1.10
2018-07-10T12:11:57.175Z,0.90
2018-07-10T12:14:24.550Z,1.00
2018-07-10T12:16:51.879Z,1.10
2018-07-10T12:19:19.277Z,1.20
2018-07-10T12:21:46.642Z,1.53
2018-07-10T12:24:14.137Z,1.30
2018-07-10T12:26:41.489Z,1.40
2018-07-10T12:29:08.840Z,1.30
2018-07-10T12:31:36.226Z,1.70
2018-07-10T12:34:03.682Z,1.83
2018-07-10T12:36:31.021Z,1.57
2018-07-10T12:38:58.430Z,1.30
2018-07-10T12:41:25.745Z,1.30
2018-07-10T12:43:53.188Z,1.30
2018-07-10T12:46:20.585Z,1.40
2018-07-10T12:48:48.021Z,1.77
2018-07-10T12:51:15.387Z,1.10
2018-07-10T12:53:42.878Z,1.47
2018-07-10T12:56:10.218Z,1.17
2018-07-10T12:58:41.890Z,1.50
2018-07-10T13:01:09.325Z,1.03
2018-07-10T13:03:37.048Z,1.33
2018-07-10T13:06:04.390Z,1.03
2018-07-10T13:08:31.774Z,1.20
2018-07-10T13:10:59.062Z,1.40
2018-07-10T13:13:27.046Z,1.00
2018-07-10T13:15:54.436Z,1.03
2018-07-10T13:18:24.690Z,1.30
2018-07-10T13:20:52.017Z,1.10
2018-07-10T13:23:19.480Z,1.57
2018-07-10T13:25:46.853Z,1.00
2018-07-10T13:28:14.386Z,1.10
2018-07-10T13:30:41.893Z,0.90
2018-07-10T13:33:09.281Z,1.33
2018-07-10T13:35:36.648Z,1.00
2018-07-10T13:38:04.626Z,1.00
2018-07-10T13:40:33.853Z,1.00
2018-07-10T13:43:01.164Z,1.03
2018-07-10T13:45:29.758Z,1.07
2018-07-10T13:47:57.119Z,1.30
2018-07-10T13:50:26.418Z,1.10
2018-07-10T13:52:54.841Z,1.40
2018-07-10T13:55:22.250Z,1.20
2018-07-10T13:58:03.246Z,1.00
2018-07-10T14:00:31.098Z,1.27
2018-07-10T14:02:58.466Z,1.63
2018-07-10T14:05:25.774Z,2.00
2018-07-10T14:07:53.537Z,1.77
2018-07-10T14:10:21.306Z,2.00
2018-07-10T14:12:48.664Z,1.70
2018-07-10T14:15:16.122Z,1.87
2018-07-10T14:17:43.801Z,2.37
2018-07-10T14:20:11.337Z,2.30
2018-07-10T14:22:39.171Z,2.20
2018-07-10T14:25:06.505Z,1.80
2018-07-10T14:27:34.035Z,2.07
2018-07-10T14:30:01.447Z,1.97
2018-07-10T14:32:28.774Z,1.40
2018-07-10T14:34:56.221Z,1.80
2018-07-10T14:37:23.578Z,1.50
2018-07-10T14:39:51.043Z,1.80
2018-07-10T14:42:18.676Z,2.10
2018-07-10T14:44:45.998Z,1.40
2018-07-10T14:47:13.687Z,1.70
2018-07-10T14:49:41.055Z,1.80
2018-07-10T14:52:08.434Z,1.27
2018-07-10T14:54:36.062Z,1.40
2018-07-10T14:57:03.462Z,1.43
2018-07-10T14:59:30.851Z,1.40
2018-07-10T15:01:58.198Z,1.53
2018-07-10T15:04:25.612Z,2.30
2018-07-10T15:06:53.013Z,1.30
2018-07-10T15:09:20.307Z,1.30
2018-07-10T15:11:47.678Z,1.47
2018-07-10T15:14:14.946Z,1.40
2018-07-10T15:16:47.930Z,1.23
2018-07-10T15:19:16.043Z,1.10
2018-07-10T15:21:43.586Z,1.23
2018-07-10T15:24:11.509Z,1.40
2018-07-10T15:26:38.862Z,1.37
2018-07-10T15:29:06.221Z,1.57
2018-07-10T15:31:33.836Z,1.23
2018-07-10T15:34:03.256Z,1.43
2018-07-10T15:36:30.574Z,1.40
2018-07-10T15:38:57.949Z,1.67
2018-07-10T15:41:27.031Z,1.50
2018-07-10T15:43:54.428Z,1.90
2018-07-10T15:46:22.555Z,1.40
2018-07-10T15:48:49.920Z,1.50
2018-07-10T15:51:17.294Z,1.20
2018-07-10T15:53:44.566Z,1.43
2018-07-10T15:56:11.934Z,1.50
2018-07-10T15:58:39.358Z,1.50
2018-07-10T16:01:06.854Z,1.20
2018-07-10T16:03:34.362Z,1.30
2018-07-10T16:06:02.730Z,1.10
2018-07-10T16:08:30.811Z,1.00
2018-07-10T16:11:01.173Z,1.50
2018-07-10T16:13:31.509Z,1.40
2018-07-10T16:15:58.881Z,1.30
2018-07-10T16:18:28.766Z,1.37
2018-07-10T16:20:57.945Z,1.40
2018-07-10T16:23:25.294Z,1.23
2018-07-10T16:25:58.728Z,1.30
2018-07-10T16:28:26.013Z,1.40
2018-07-10T16:30:53.522Z,1.10
2018-07-10T16:33:27.741Z,2.23
2018-07-10T16:35:55.046Z,1.10
2018-07-10T16:38:22.403Z,1.50
2018-07-10T16:40:50.206Z,1.60
2018-07-10T16:43:23.903Z,1.00
2018-07-10T16:45:52.520Z,1.40
2018-07-10T16:48:24.310Z,1.80
2018-07-10T16:51:27.668Z,1.50
2018-07-10T16:54:00.146Z,1.57
2018-07-10T16:56:27.781Z,1.33
2018-07-10T16:58:56.261Z,1.27
2018-07-10T17:01:24.142Z,1.10
2018-07-10T17:03:51.570Z,1.20
2018-07-10T17:06:19.535Z,1.10
2018-07-10T17:08:46.809Z,1.17
2018-07-10T17:11:14.254Z,1.20
2018-07-10T17:13:41.677Z,1.73
2018-07-10T17:16:08.928Z,1.13
2018-07-10T17:18:36.302Z,1.67
2018-07-10T17:21:03.648Z,1.30
2018-07-10T17:23:31.074Z,1.80
2018-07-10T17:25:58.622Z,1.30
2018-07-10T17:28:25.968Z,1.80
2018-07-10T17:30:53.269Z,1.27
2018-07-10T17:33:20.627Z,1.70
2018-07-10T17:35:47.973Z,1.50
2018-07-10T17:38:15.286Z,1.73
2018-07-10T17:40:42.650Z,1.60
2018-07-10T17:43:10.394Z,1.80
2018-07-10T17:45:37.743Z,1.40
2018-07-10T17:48:05.633Z,1.60
2018-07-10T17:50:33.154Z,1.70
2018-07-10T17:53:00.589Z,3.10
2018-07-10T17:55:27.951Z,1.43
2018-07-10T17:58:03.347Z,2.30
2018-07-10T18:00:30.760Z,1.73
2018-07-10T18:02:58.059Z,2.20
2018-07-10T18:05:25.351Z,2.13
2018-07-10T18:07:52.674Z,2.03
2018-07-10T18:10:20.019Z,2.00
2018-07-10T18:12:47.382Z,1.80
2018-07-10T18:15:14.814Z,1.50
2018-07-10T18:17:42.152Z,2.00
2018-07-10T18:20:09.519Z,1.83
2018-07-10T18:22:36.859Z,1.60
2018-07-10T18:25:04.190Z,1.60
2018-07-10T18:27:31.509Z,1.70
2018-07-10T18:29:59.101Z,1.60
2018-07-10T18:32:26.888Z,1.33
2018-07-10T18:34:54.210Z,1.60
2018-07-10T18:37:21.510Z,1.57
2018-07-10T18:39:48.874Z,1.60
2018-07-10T18:42:16.431Z,1.90
2018-07-10T18:44:43.716Z,1.87
2018-07-10T18:47:11.043Z,1.80
2018-07-10T18:49:38.501Z,1.57
2018-07-10T18:52:05.866Z,1.50
2018-07-10T18:54:35.745Z,1.50
2018-07-10T18:57:11.113Z,2.07
2018-07-10T18:59:38.461Z,1.60
2018-07-10T19:02:17.330Z,1.70
2018-07-10T19:04:54.166Z,1.80
2018-07-10T19:07:21.797Z,1.63
2018-07-10T19:09:49.268Z,1.67
2018-07-10T19:12:16.801Z,1.70
2018-07-10T19:14:44.530Z,1.63
2018-07-10T19:17:13.514Z,1.67
2018-07-10T19:19:44.324Z,1.83
2018-07-10T19:22:11.736Z,1.70
2018-07-10T19:24:40.646Z,1.70
2018-07-10T19:27:08.137Z,1.90
2018-07-10T19:29:47.069Z,1.60
2018-07-10T19:32:14.739Z,2.03
2018-07-10T19:34:42.141Z,1.80
2018-07-10T19:37:09.621Z,1.53
2018-07-10T19:39:37.028Z,1.90
2018-07-10T19:42:04.783Z,1.90
2018-07-10T19:44:32.202Z,1.77
2018-07-10T19:46:59.619Z,2.00
2018-07-10T19:49:26.985Z,2.17
2018-07-10T19:51:54.327Z,2.40
2018-07-10T19:54:21.749Z,1.93
2018-07-10T19:56:49.042Z,2.07
2018-07-10T19:59:16.607Z,2.00
2018-07-10T20:01:45.441Z,1.90
2018-07-10T20:04:25.506Z,2.13
2018-07-10T20:07:08.382Z,2.10
2018-07-10T20:09:48.438Z,1.90
2018-07-10T20:12:18.942Z,1.97
2018-07-10T20:14:57.230Z,2.30
2018-07-10T20:17:26.778Z,2.43
2018-07-10T20:20:06.173Z,2.10
2018-07-10T20:24:51.665Z,2.13
2018-07-10T20:27:27.145Z,2.13
2018-07-10T20:30:07.190Z,2.33
2018-07-10T20:32:54.026Z,1.80
2018-07-10T20:35:25.994Z,1.50
2018-07-10T20:37:53.375Z,2.07
2018-07-10T20:40:28.957Z,2.67
2018-07-10T20:42:56.324Z,6.80
2018-07-10T20:45:24.384Z,4.20
2018-07-10T20:47:54.482Z,2.97
2018-07-10T20:50:33.157Z,2.23
2018-07-10T20:53:07.469Z,1.50
2018-07-10T20:55:41.229Z,1.30
2018-07-10T20:58:12.059Z,1.60
2018-07-10T21:00:40.925Z,1.70
2018-07-10T21:03:18.261Z,1.60
2018-07-10T21:05:47.094Z,1.60
2018-07-10T21:08:33.531Z,2.00
2018-07-10T21:11:08.596Z,2.10
2018-07-10T21:13:46.499Z,1.53
2018-07-10T21:16:18.358Z,2.10
2018-07-10T21:18:55.272Z,2.07
2018-07-10T21:21:30.710Z,2.23
2018-07-10T21:25:05.289Z,1.87
2018-07-10T21:27:43.311Z,1.83
2018-07-10T21:30:17.175Z,1.80
2018-07-10T21:32:55.252Z,1.60
2018-07-10T21:35:24.658Z,2.00
2018-07-10T21:39:01.337Z,2.00
2018-07-10T21:41:44.195Z,2.20
2018-07-10T21:44:39.240Z,2.27
2018-07-10T21:47:15.949Z,1.60
2018-07-10T21:49:49.917Z,1.90
2018-07-10T21:52:17.262Z,2.17
2018-07-10T21:54:44.706Z,1.70
2018-07-10T21:57:13.618Z,1.50
2018-07-10T21:59:46.669Z,1.63
2018-07-10T22:02:13.933Z,1.87
2018-07-10T22:04:41.348Z,2.10
2018-07-10T22:07:13.171Z,1.80
2018-07-10T22:09:41.214Z,2.30
2018-07-10T22:12:12.901Z,4.67
2018-07-10T22:14:40.768Z,4.63
2018-07-10T22:17:16.506Z,3.03
2018-07-10T22:19:44.570Z,5.63
2018-07-10T22:22:16.353Z,5.00
2018-07-10T22:24:43.766Z,5.03
2018-07-10T22:27:11.062Z,3.17
2018-07-10T22:29:44.178Z,2.13
2018-07-10T22:32:17.085Z,2.70
2018-07-10T22:34:44.457Z,5.53
2018-07-10T22:37:12.678Z,11.37
2018-07-10T22:39:40.779Z,5.10
2018-07-10T22:42:08.082Z,3.57
2018-07-10T22:44:37.188Z,3.40
2018-07-10T22:47:04.675Z,3.03
2018-07-10T22:49:31.996Z,4.20
2018-07-10T22:52:00.117Z,4.27
2018-07-10T22:54:27.925Z,4.00
2018-07-10T22:56:55.449Z,4.40
2018-07-10T22:59:22.878Z,3.60
2018-07-10T23:01:50.290Z,4.77
2018-07-10T23:04:18.186Z,4.40
2018-07-10T23:06:45.490Z,4.60
2018-07-10T23:09:12.757Z,4.03
2018-07-10T23:11:40.141Z,4.50
2018-07-10T23:14:07.506Z,4.07
2018-07-10T23:16:36.177Z,3.90
2018-07-10T23:19:04.245Z,4.50
2018-07-10T23:21:31.623Z,4.47
2018-07-10T23:23:59.052Z,6.87
2018-07-10T23:26:26.354Z,5.00
2018-07-10T23:28:54.359Z,4.40
2018-07-10T23:31:23.813Z,5.00
2018-07-10T23:34:23.486Z,4.10
2018-07-10T23:36:53.577Z,4.97
2018-07-10T23:39:32.490Z,5.50
2018-07-10T23:42:03.773Z,4.90
2018-07-10T23:44:40.115Z,5.37
2018-07-10T23:47:16.221Z,4.97
2018-07-10T23:49:43.549Z,5.50
2018-07-10T23:53:25.259Z,4.60
2018-07-10T23:55:52.641Z,5.10
2018-07-10T23:58:19.930Z,6.27
